Terminal Aerodrome Forecast
Issued by NWS Raleigh/Durham, NC

Home | Current Version | Previous Version | Text Only | Print | Product List | Glossary On
Versions: 1 2 3 4 5 6 7 8 9 10 11 12 13
000
FTUS42 KRAH 181739
TAFFAY
TAF
KFAY 181739Z 1818/1918 02009KT P6SM OVC250
     FM190300 03010KT P6SM OVC015
     FM190600 03011KT 5SM -RA BR OVC007
     FM191000 02012G22KT 2SM -RA BR OVC004=

USA.gov is the U.S. government's official web portal to all federal, state and local government web resources and services.